createdAt,value
2019-02-28T05:00:56.544Z,24.80
2019-02-28T05:01:56.417Z,41.00
2019-02-28T05:03:49.075Z,42.20
2019-02-28T05:04:48.953Z,43.10
2019-02-28T05:06:41.704Z,42.10
2019-02-28T05:07:41.569Z,43.60
2019-02-28T05:09:34.239Z,41.60
2019-02-28T05:10:34.117Z,41.10
2019-02-28T05:12:26.800Z,41.30
2019-02-28T05:13:26.677Z,43.50
2019-02-28T05:15:19.333Z,42.10
2019-02-28T05:16:19.214Z,42.60
2019-02-28T05:18:11.900Z,42.90
2019-02-28T05:19:11.762Z,40.80
2019-02-28T05:21:04.443Z,42.50
2019-02-28T05:22:04.316Z,40.50
2019-02-28T05:23:57.010Z,41.40
2019-02-28T05:24:56.875Z,41.00
2019-02-28T05:26:49.532Z,40.20
2019-02-28T05:27:49.421Z,41.30
2019-02-28T05:29:44.007Z,43.20
2019-02-28T05:30:41.976Z,42.90
2019-02-28T05:32:35.656Z,42.00
2019-02-28T05:33:34.521Z,44.10
2019-02-28T05:35:27.197Z,43.30
2019-02-28T05:36:27.071Z,41.80
2019-02-28T05:38:21.120Z,41.40
2019-02-28T05:39:19.618Z,43.30
2019-02-28T05:41:15.257Z,41.40
2019-02-28T05:42:12.170Z,42.80
2019-02-28T05:44:06.329Z,43.10
2019-02-28T05:45:04.727Z,42.60
2019-02-28T05:46:58.117Z,43.50
2019-02-28T05:47:57.283Z,42.90
2019-02-28T05:49:49.966Z,42.20
2019-02-28T05:50:52.829Z,42.10
2019-02-28T05:52:42.538Z,42.40
2019-02-28T05:53:42.754Z,42.30
2019-02-28T05:55:35.061Z,43.80
2019-02-28T05:56:34.958Z,44.00
2019-02-28T05:58:27.645Z,43.00
2019-02-28T05:59:27.573Z,43.00
2019-02-28T06:01:20.172Z,43.00
2019-02-28T06:02:22.540Z,43.90
2019-02-28T06:04:12.749Z,42.30
2019-02-28T06:05:12.922Z,43.50
2019-02-28T06:07:05.286Z,44.00
2019-02-28T06:08:05.161Z,43.10
2019-02-28T06:09:57.896Z,42.50
2019-02-28T06:11:00.699Z,43.50
2019-02-28T06:12:50.375Z,44.20
2019-02-28T06:13:52.693Z,43.80
2019-02-28T06:15:43.023Z,42.10
2019-02-28T06:16:46.522Z,44.30
2019-02-28T06:18:35.505Z,43.40
2019-02-28T06:19:35.394Z,44.70
2019-02-28T06:21:28.071Z,45.20
2019-02-28T06:22:31.073Z,45.40
2019-02-28T06:24:20.602Z,45.80
2019-02-28T06:25:23.814Z,44.10
2019-02-28T06:27:13.170Z,45.10
2019-02-28T06:28:13.034Z,43.30
2019-02-28T06:30:08.717Z,45.50
2019-02-28T06:31:05.582Z,44.00
2019-02-28T06:32:59.577Z,46.50
2019-02-28T06:33:58.149Z,46.20
2019-02-28T06:35:53.669Z,44.50
2019-02-28T06:36:50.677Z,44.90
2019-02-28T06:38:43.356Z,45.00
2019-02-28T06:39:43.225Z,45.00
2019-02-28T06:41:35.903Z,44.60
2019-02-28T06:42:35.771Z,44.80
2019-02-28T06:44:28.618Z,45.80
2019-02-28T06:45:28.355Z,45.20
2019-02-28T06:47:21.138Z,45.30
2019-02-28T06:48:25.757Z,46.20
2019-02-28T06:50:14.140Z,48.00
2019-02-28T06:51:16.867Z,46.50
2019-02-28T06:53:07.144Z,45.40
2019-02-28T06:54:07.886Z,46.60
2019-02-28T06:55:59.729Z,47.30
2019-02-28T06:56:59.578Z,47.10
2019-02-28T06:58:52.238Z,46.80
2019-02-28T06:59:52.123Z,47.70
2019-02-28T07:01:44.807Z,45.90
2019-02-28T07:02:44.681Z,46.80
2019-02-28T07:04:37.338Z,47.60
2019-02-28T07:05:37.235Z,45.90
2019-02-28T07:07:29.906Z,47.10
2019-02-28T07:08:29.781Z,46.00
2019-02-28T07:10:22.470Z,46.90
2019-02-28T07:11:22.336Z,48.20
2019-02-28T07:13:14.996Z,47.30
2019-02-28T07:14:14.879Z,46.50
2019-02-28T07:16:07.574Z,47.30
2019-02-28T07:17:07.730Z,46.90
2019-02-28T07:19:00.115Z,47.10
2019-02-28T07:20:01.971Z,45.00
2019-02-28T07:21:52.679Z,47.20
2019-02-28T07:22:55.626Z,47.70
2019-02-28T07:24:45.205Z,47.80
2019-02-28T07:25:47.429Z,49.40
2019-02-28T07:27:37.785Z,49.30
2019-02-28T07:28:37.802Z,48.60
2019-02-28T07:30:30.309Z,48.10
2019-02-28T07:31:30.197Z,48.20
2019-02-28T07:33:22.864Z,47.70
2019-02-28T07:34:23.973Z,47.30
2019-02-28T07:36:15.398Z,46.90
2019-02-28T07:37:18.567Z,47.70
2019-02-28T07:39:07.964Z,47.40
2019-02-28T07:40:07.833Z,48.50
2019-02-28T07:42:02.262Z,48.10
2019-02-28T07:43:00.386Z,46.90
2019-02-28T07:44:53.726Z,48.20
2019-02-28T07:45:52.950Z,48.60
2019-02-28T07:47:45.631Z,49.50
2019-02-28T07:48:45.506Z,48.20
2019-02-28T07:50:38.159Z,47.50
2019-02-28T07:51:38.043Z,48.00
2019-02-28T07:53:30.743Z,48.70
2019-02-28T07:54:31.323Z,48.30
2019-02-28T07:56:23.966Z,50.00
2019-02-28T07:57:23.162Z,50.40
2019-02-28T07:59:15.846Z,48.70
2019-02-28T08:00:18.263Z,48.70
2019-02-28T08:02:08.377Z,48.60
2019-02-28T08:03:11.191Z,48.50
2019-02-28T08:05:02.960Z,49.60
2019-02-28T08:06:04.423Z,49.30
2019-02-28T08:07:53.516Z,48.60
2019-02-28T08:08:53.383Z,49.90
2019-02-28T08:10:47.992Z,48.70
2019-02-28T08:11:45.933Z,49.10
2019-02-28T08:13:38.699Z,50.50
2019-02-28T08:14:38.491Z,49.90
2019-02-28T08:16:33.985Z,48.40
2019-02-28T08:17:31.052Z,47.00
2019-02-28T08:19:27.230Z,48.60
2019-02-28T08:20:23.626Z,48.70
2019-02-28T08:22:16.294Z,49.00
2019-02-28T08:23:16.157Z,47.90
2019-02-28T08:25:08.830Z,48.20
2019-02-28T08:26:08.718Z,48.40
2019-02-28T08:28:01.409Z,48.00
2019-02-28T08:29:01.265Z,47.30
2019-02-28T08:30:55.294Z,49.20
2019-02-28T08:31:53.852Z,47.80
2019-02-28T08:33:48.153Z,48.20
2019-02-28T08:34:46.987Z,47.40
2019-02-28T08:36:39.581Z,47.80
2019-02-28T08:37:39.467Z,48.90
2019-02-28T08:39:32.210Z,48.50
2019-02-28T08:40:32.045Z,47.60
2019-02-28T08:42:24.714Z,50.50
2019-02-28T08:43:27.380Z,48.30
2019-02-28T08:45:17.442Z,49.50
2019-02-28T08:46:17.169Z,49.50
2019-02-28T08:48:09.837Z,49.00
2019-02-28T08:49:09.716Z,47.00
2019-02-28T08:51:02.422Z,48.30
2019-02-28T08:52:02.489Z,48.60
2019-02-28T08:53:54.958Z,49.10
2019-02-28T08:54:54.842Z,49.70
2019-02-28T08:56:49.769Z,47.50
2019-02-28T08:57:54.509Z,48.40
2019-02-28T08:59:40.125Z,50.30
2019-02-28T09:00:39.979Z,47.90
2019-02-28T09:02:32.734Z,48.40
2019-02-28T09:03:32.639Z,48.10
2019-02-28T09:05:26.148Z,47.60
2019-02-28T09:06:25.239Z,48.90
2019-02-28T09:08:17.900Z,46.50
2019-02-28T09:09:17.776Z,49.40
2019-02-28T09:11:10.501Z,48.50
2019-02-28T09:12:10.373Z,49.10
2019-02-28T09:14:03.118Z,47.70
2019-02-28T09:15:02.941Z,49.60
2019-02-28T09:16:55.682Z,48.70
2019-02-28T09:17:59.375Z,48.00
2019-02-28T09:19:48.234Z,49.50
2019-02-28T09:20:48.099Z,49.80
2019-02-28T09:22:40.776Z,49.60
2019-02-28T09:23:40.653Z,50.50
2019-02-28T09:25:33.415Z,49.50
2019-02-28T09:26:33.230Z,47.40
2019-02-28T09:28:25.934Z,48.00
2019-02-28T09:29:25.785Z,49.00
2019-02-28T09:31:18.530Z,47.40
2019-02-28T09:32:18.387Z,48.50
2019-02-28T09:34:11.192Z,49.50
2019-02-28T09:35:14.439Z,47.10
2019-02-28T09:37:03.722Z,47.60
2019-02-28T09:38:07.658Z,48.80
2019-02-28T09:39:56.307Z,49.00
2019-02-28T09:40:56.166Z,47.70
2019-02-28T09:42:51.182Z,48.80
2019-02-28T09:43:48.786Z,47.60
2019-02-28T09:45:41.465Z,48.00
2019-02-28T09:46:41.408Z,48.20
2019-02-28T09:48:37.307Z,48.10
2019-02-28T09:49:33.918Z,49.00
2019-02-28T09:51:31.507Z,48.60
2019-02-28T09:52:26.472Z,47.70
2019-02-28T09:54:21.419Z,48.30
2019-02-28T09:55:19.042Z,49.20
2019-02-28T09:57:11.743Z,46.50
2019-02-28T09:58:11.613Z,47.10
2019-02-28T10:00:04.289Z,48.40
2019-02-28T10:01:04.175Z,49.30
2019-02-28T10:02:56.886Z,48.60
2019-02-28T10:03:56.755Z,48.20
2019-02-28T10:05:49.446Z,48.40
2019-02-28T10:06:51.568Z,49.70
2019-02-28T10:08:42.002Z,48.80
2019-02-28T10:09:44.434Z,49.10
2019-02-28T10:11:34.547Z,48.80
2019-02-28T10:12:34.437Z,49.80
2019-02-28T10:14:28.867Z,49.50
2019-02-28T10:15:27.010Z,47.70
2019-02-28T10:17:19.710Z,48.70
2019-02-28T10:18:19.585Z,50.90
2019-02-28T10:20:12.258Z,49.90
2019-02-28T10:21:12.149Z,50.40
2019-02-28T10:23:04.843Z,50.60
2019-02-28T10:24:04.715Z,49.60
2019-02-28T10:25:57.393Z,51.00
2019-02-28T10:26:57.286Z,50.30
2019-02-28T10:28:49.967Z,52.10
2019-02-28T10:29:49.845Z,51.40
2019-02-28T10:31:42.520Z,50.50
2019-02-28T10:32:43.374Z,50.60
2019-02-28T10:34:35.457Z,50.50
2019-02-28T10:35:36.692Z,51.10
2019-02-28T10:37:27.663Z,51.70
2019-02-28T10:38:29.425Z,51.40
2019-02-28T10:40:20.254Z,52.10
2019-02-28T10:41:20.121Z,52.10
2019-02-28T10:43:15.510Z,52.00
2019-02-28T10:44:12.723Z,51.90
2019-02-28T10:46:05.425Z,51.90
2019-02-28T10:47:05.297Z,49.50
2019-02-28T10:48:58.044Z,51.70
2019-02-28T10:49:58.287Z,50.90
2019-02-28T10:51:50.580Z,52.30
2019-02-28T10:52:50.465Z,52.60
2019-02-28T10:54:43.174Z,51.40
2019-02-28T10:55:43.042Z,51.50
2019-02-28T10:57:37.272Z,52.60
2019-02-28T10:58:35.610Z,51.90
2019-02-28T11:00:29.527Z,51.90
2019-02-28T11:01:28.198Z,50.50
2019-02-28T11:03:20.880Z,52.30
2019-02-28T11:04:20.774Z,52.80
2019-02-28T11:06:13.469Z,51.20
2019-02-28T11:07:13.342Z,52.60
2019-02-28T11:09:06.036Z,50.90
2019-02-28T11:10:05.929Z,51.20
2019-02-28T11:11:58.637Z,51.80
2019-02-28T11:12:58.493Z,51.30
2019-02-28T11:14:51.182Z,51.30
2019-02-28T11:15:51.104Z,53.50
2019-02-28T11:17:44.648Z,52.40
2019-02-28T11:18:43.684Z,53.40
2019-02-28T11:20:36.353Z,53.10
2019-02-28T11:21:36.246Z,52.10
2019-02-28T11:23:28.951Z,52.90
2019-02-28T11:24:28.833Z,50.90
2019-02-28T11:26:21.497Z,51.60
2019-02-28T11:27:22.964Z,51.30
2019-02-28T11:29:14.077Z,52.00
2019-02-28T11:30:13.957Z,53.00
2019-02-28T11:32:06.643Z,52.60
2019-02-28T11:33:06.533Z,50.90
2019-02-28T11:34:59.231Z,52.20
2019-02-28T11:35:59.429Z,52.20
2019-02-28T11:37:51.807Z,51.60
2019-02-28T11:38:52.582Z,50.70
2019-02-28T11:40:44.629Z,52.00
2019-02-28T11:41:44.274Z,50.80
2019-02-28T11:43:38.400Z,52.80
2019-02-28T11:44:36.832Z,52.00
2019-02-28T11:46:29.508Z,52.30
2019-02-28T11:47:29.386Z,52.30
2019-02-28T11:49:22.094Z,52.50
2019-02-28T11:50:21.968Z,51.20
2019-02-28T11:52:16.006Z,53.90
2019-02-28T11:53:14.541Z,52.40
2019-02-28T11:55:07.731Z,53.90
2019-02-28T11:56:07.615Z,53.70
2019-02-28T11:58:00.283Z,52.00
2019-02-28T11:59:00.180Z,51.30
2019-02-28T12:00:52.872Z,52.20
2019-02-28T12:01:52.745Z,50.80
2019-02-28T12:03:45.420Z,52.60
2019-02-28T12:04:45.311Z,53.10
2019-02-28T12:06:38.002Z,50.20
2019-02-28T12:07:37.874Z,52.20
2019-02-28T12:09:31.056Z,51.60
2019-02-28T12:10:30.934Z,50.80
2019-02-28T12:12:23.614Z,52.60
2019-02-28T12:13:23.501Z,51.60
2019-02-28T12:15:16.196Z,51.60
2019-02-28T12:16:16.313Z,52.50
2019-02-28T12:18:08.743Z,52.00
2019-02-28T12:19:08.627Z,51.60
2019-02-28T12:21:01.754Z,53.10
2019-02-28T12:22:01.205Z,52.20
2019-02-28T12:23:54.348Z,52.30
2019-02-28T12:24:55.241Z,52.60
2019-02-28T12:26:49.404Z,52.40
2019-02-28T12:27:46.346Z,51.70
2019-02-28T12:29:39.028Z,52.10
2019-02-28T12:30:40.271Z,50.40
2019-02-28T12:32:31.606Z,51.10
2019-02-28T12:33:31.481Z,52.60
2019-02-28T12:35:24.154Z,54.10
2019-02-28T12:36:24.054Z,51.00
2019-02-28T12:38:16.751Z,51.70
2019-02-28T12:39:16.631Z,52.10
2019-02-28T12:41:09.308Z,51.30
2019-02-28T12:42:09.201Z,50.70
2019-02-28T12:44:01.890Z,49.20
2019-02-28T12:45:01.767Z,51.20
2019-02-28T12:46:54.445Z,50.00
2019-02-28T12:47:54.355Z,50.50
2019-02-28T12:49:47.032Z,50.20
2019-02-28T12:50:46.914Z,51.50
2019-02-28T12:52:39.600Z,50.30
2019-02-28T12:53:39.488Z,50.50
2019-02-28T12:55:32.173Z,50.30
2019-02-28T12:56:32.053Z,49.50
2019-02-28T12:58:24.738Z,50.80
2019-02-28T12:59:24.623Z,51.90
2019-02-28T13:01:17.336Z,51.00
2019-02-28T13:02:17.239Z,50.70
2019-02-28T13:04:09.915Z,52.60
2019-02-28T13:05:14.945Z,51.40
2019-02-28T13:07:02.476Z,51.50
2019-02-28T13:08:05.840Z,51.50
2019-02-28T13:09:55.076Z,49.10
2019-02-28T13:10:54.942Z,52.50
2019-02-28T13:12:48.855Z,51.70
2019-02-28T13:13:47.513Z,50.30
2019-02-28T13:15:40.195Z,49.70
2019-02-28T13:16:40.088Z,50.30
2019-02-28T13:18:32.770Z,51.00
2019-02-28T13:19:32.657Z,51.60
2019-02-28T13:21:25.361Z,51.20
2019-02-28T13:22:25.239Z,51.40
2019-02-28T13:24:17.914Z,51.40
2019-02-28T13:25:19.407Z,51.40
2019-02-28T13:27:10.813Z,50.00
2019-02-28T13:28:10.385Z,50.30
2019-02-28T13:30:05.504Z,50.90
2019-02-28T13:31:02.951Z,51.10
2019-02-28T13:32:55.657Z,50.80
2019-02-28T13:33:55.520Z,51.20
2019-02-28T13:35:48.197Z,52.00
2019-02-28T13:36:48.086Z,49.70
2019-02-28T13:38:40.822Z,51.50
2019-02-28T13:39:40.697Z,50.90
2019-02-28T13:41:33.376Z,52.10
2019-02-28T13:42:36.357Z,51.70
2019-02-28T13:44:25.950Z,51.90
2019-02-28T13:45:25.842Z,52.40
2019-02-28T13:47:18.515Z,52.20
2019-02-28T13:48:25.656Z,52.10
2019-02-28T13:50:11.088Z,50.00
2019-02-28T13:51:10.968Z,50.70
2019-02-28T13:53:16.941Z,50.30
2019-02-28T13:54:06.550Z,51.90
2019-02-28T13:55:57.796Z,52.40
2019-02-28T13:56:56.105Z,51.60
2019-02-28T13:58:48.791Z,50.40
2019-02-28T13:59:48.673Z,49.90
2019-02-28T14:01:41.368Z,51.50
2019-02-28T14:02:41.236Z,50.50
2019-02-28T14:04:33.911Z,51.30
2019-02-28T14:05:38.702Z,51.70
2019-02-28T14:07:30.213Z,52.60
2019-02-28T14:08:26.366Z,51.20
2019-02-28T14:10:19.040Z,50.90
2019-02-28T14:11:18.938Z,50.00
2019-02-28T14:13:11.634Z,50.20
2019-02-28T14:14:11.506Z,47.70
2019-02-28T14:16:04.181Z,47.70
2019-02-28T14:17:04.073Z,48.20
2019-02-28T14:18:56.753Z,49.30
2019-02-28T14:19:56.636Z,48.70
2019-02-28T14:21:49.317Z,48.90
2019-02-28T14:22:49.200Z,48.10
2019-02-28T14:24:41.890Z,47.90
2019-02-28T14:25:41.767Z,49.10
2019-02-28T14:27:34.439Z,48.80
2019-02-28T14:28:35.656Z,48.10
2019-02-28T14:30:27.030Z,48.70
2019-02-28T14:31:29.597Z,48.30
2019-02-28T14:33:20.648Z,50.50
2019-02-28T14:34:19.468Z,52.10
2019-02-28T14:36:12.158Z,51.60
2019-02-28T14:37:12.043Z,50.00
2019-02-28T14:39:08.451Z,49.30
2019-02-28T14:40:04.609Z,50.00
2019-02-28T14:41:57.290Z,48.70
2019-02-28T14:42:57.163Z,48.60
2019-02-28T14:44:49.845Z,51.20
2019-02-28T14:45:49.734Z,49.80
2019-02-28T14:47:42.419Z,50.70
2019-02-28T14:48:42.300Z,51.10
2019-02-28T14:50:34.998Z,51.10
2019-02-28T14:51:34.866Z,52.10
2019-02-28T14:53:27.551Z,54.40
2019-02-28T14:54:27.432Z,55.70
2019-02-28T14:56:20.126Z,55.10
2019-02-28T14:57:19.999Z,55.90
2019-02-28T14:59:12.681Z,56.10
2019-02-28T15:00:12.569Z,54.70
2019-02-28T15:02:05.260Z,54.10
2019-02-28T15:03:05.140Z,54.90
2019-02-28T15:04:57.816Z,54.70
2019-02-28T15:05:57.779Z,56.90
2019-02-28T15:07:50.418Z,56.00
2019-02-28T15:08:50.967Z,56.60
2019-02-28T15:10:42.964Z,55.50
2019-02-28T15:11:43.618Z,56.40
2019-02-28T15:13:35.539Z,57.20
2019-02-28T15:14:35.410Z,57.20
2019-02-28T15:16:29.574Z,58.90
2019-02-28T15:17:27.984Z,56.90
2019-02-28T15:19:21.444Z,55.80
2019-02-28T15:20:20.559Z,56.40
2019-02-28T15:22:14.214Z,55.40
2019-02-28T15:23:13.118Z,55.90
2019-02-28T15:25:05.811Z,54.10
2019-02-28T15:26:05.681Z,54.00
2019-02-28T15:27:58.374Z,55.50
2019-02-28T15:28:58.257Z,56.00
2019-02-28T15:30:50.967Z,55.40
2019-02-28T15:31:50.832Z,54.80
2019-02-28T15:33:43.498Z,54.70
2019-02-28T15:34:43.400Z,55.00
2019-02-28T15:36:36.077Z,55.70
2019-02-28T15:37:35.951Z,55.00
2019-02-28T15:39:28.625Z,55.10
2019-02-28T15:40:28.517Z,53.40
2019-02-28T15:42:21.718Z,56.80
2019-02-28T15:43:21.604Z,53.80
2019-02-28T15:45:14.275Z,55.50
2019-02-28T15:46:14.173Z,54.90
2019-02-28T15:48:06.863Z,54.40
2019-02-28T15:49:10.175Z,55.80
2019-02-28T15:50:59.409Z,55.30
2019-02-28T15:52:01.899Z,56.20
2019-02-28T15:53:52.495Z,56.50
2019-02-28T15:54:52.357Z,55.40
2019-02-28T15:56:45.513Z,53.90
2019-02-28T15:57:45.408Z,55.30
2019-02-28T15:59:38.104Z,56.40
2019-02-28T16:00:37.971Z,56.80
2019-02-28T16:02:30.641Z,57.50
2019-02-28T16:03:30.532Z,55.10
2019-02-28T16:05:23.221Z,55.70
2019-02-28T16:06:23.096Z,55.40
2019-02-28T16:08:15.768Z,48.70
2019-02-28T16:09:18.608Z,49.00
2019-02-28T16:11:08.345Z,47.10
2019-02-28T16:12:08.220Z,46.90
2019-02-28T16:14:01.219Z,47.20
2019-02-28T16:15:00.783Z,45.50
2019-02-28T16:16:53.470Z,46.90
2019-02-28T16:17:53.337Z,46.60
2019-02-28T16:19:46.010Z,48.20
2019-02-28T16:20:45.903Z,46.40
2019-02-28T16:22:38.594Z,47.60
2019-02-28T16:23:38.463Z,47.40
2019-02-28T16:25:31.135Z,48.30
2019-02-28T16:26:31.029Z,49.10
2019-02-28T16:28:23.710Z,49.70
2019-02-28T16:29:23.597Z,49.30
2019-02-28T16:31:16.260Z,50.90
2019-02-28T16:32:16.159Z,50.30
2019-02-28T16:34:08.854Z,50.20
2019-02-28T16:35:08.722Z,49.50
2019-02-28T16:37:01.953Z,48.80
2019-02-28T16:38:01.285Z,47.50
2019-02-28T16:39:53.982Z,41.60
2019-02-28T16:40:53.882Z,39.70
2019-02-28T16:42:47.254Z,35.80
2019-02-28T16:43:46.410Z,35.10
2019-02-28T16:45:41.014Z,36.40
2019-02-28T16:46:38.972Z,35.40
2019-02-28T16:48:33.478Z,34.50
2019-02-28T16:49:31.541Z,36.40
2019-02-28T16:51:26.352Z,35.30
2019-02-28T16:52:24.094Z,34.70
2019-02-28T16:54:19.293Z,34.60
2019-02-28T16:55:16.662Z,33.10
2019-02-28T16:57:09.556Z,32.40
2019-02-28T16:58:09.225Z,31.50
2019-02-28T17:00:04.052Z,27.70
2019-02-28T17:01:01.784Z,26.20
2019-02-28T17:02:54.481Z,25.80
2019-02-28T17:03:54.350Z,26.10
2019-02-28T17:05:47.047Z,25.80
2019-02-28T17:06:46.914Z,25.60
2019-02-28T17:08:39.580Z,27.00
2019-02-28T17:09:39.474Z,27.00
2019-02-28T17:11:32.160Z,27.10
2019-02-28T17:12:32.039Z,28.60
2019-02-28T17:14:24.713Z,26.80
2019-02-28T17:15:24.604Z,27.90
2019-02-28T17:17:17.299Z,27.80
2019-02-28T17:18:18.524Z,28.30
2019-02-28T17:20:09.833Z,28.80
2019-02-28T17:21:16.716Z,28.60
2019-02-28T17:23:02.914Z,30.90
2019-02-28T17:24:02.782Z,31.30
2019-02-28T17:25:56.547Z,30.50
2019-02-28T17:26:55.342Z,32.80
2019-02-28T17:28:49.833Z,33.60
2019-02-28T17:29:47.896Z,33.00
2019-02-28T17:31:40.573Z,34.50
2019-02-28T17:32:40.466Z,35.20
2019-02-28T17:34:33.151Z,35.50
2019-02-28T17:35:33.789Z,34.90
2019-02-28T17:37:26.687Z,36.30
2019-02-28T17:38:25.580Z,36.10
2019-02-28T17:40:18.262Z,36.30
2019-02-28T17:41:18.131Z,36.80
2019-02-28T17:43:10.805Z,36.90
2019-02-28T17:44:10.694Z,35.80
2019-02-28T17:46:03.377Z,38.00
2019-02-28T17:47:03.254Z,37.10
2019-02-28T17:48:55.925Z,38.30
2019-02-28T17:49:55.818Z,37.20
2019-02-28T17:51:48.537Z,37.70
2019-02-28T17:52:48.392Z,38.90
2019-02-28T17:54:41.053Z,38.80
2019-02-28T17:55:40.939Z,38.50
2019-02-28T17:57:33.630Z,39.10
2019-02-28T17:58:33.529Z,39.70
2019-02-28T18:00:26.169Z,39.30
2019-02-28T18:01:28.673Z,39.30
2019-02-28T18:03:18.749Z,39.00
2019-02-28T18:04:20.967Z,38.10
2019-02-28T18:06:12.055Z,41.40
2019-02-28T18:07:11.181Z,40.20
2019-02-28T18:09:04.029Z,42.90
2019-02-28T18:10:03.847Z,40.50
2019-02-28T18:11:56.535Z,42.10
2019-02-28T18:12:56.407Z,41.30
2019-02-28T18:14:49.092Z,41.00
2019-02-28T18:15:48.962Z,41.60
2019-02-28T18:17:41.644Z,41.30
2019-02-28T18:18:42.489Z,40.50
2019-02-28T18:20:34.229Z,42.60
2019-02-28T18:21:37.532Z,40.10
2019-02-28T18:23:27.911Z,41.70
2019-02-28T18:24:26.656Z,40.80
2019-02-28T18:26:19.374Z,43.30
2019-02-28T18:27:19.225Z,41.70
2019-02-28T18:29:11.915Z,41.60
2019-02-28T18:30:11.805Z,41.90
2019-02-28T18:32:04.494Z,41.70
2019-02-28T18:33:06.813Z,41.20
2019-02-28T18:34:57.150Z,40.20
2019-02-28T18:35:56.918Z,42.30
2019-02-28T18:37:49.622Z,41.50
2019-02-28T18:38:49.496Z,39.70
2019-02-28T18:40:42.174Z,40.60
2019-02-28T18:41:43.088Z,40.10
2019-02-28T18:43:34.761Z,41.90
2019-02-28T18:44:37.502Z,42.40
2019-02-28T18:46:29.467Z,41.00
2019-02-28T18:47:27.182Z,41.80
2019-02-28T18:49:19.865Z,40.80
2019-02-28T18:50:19.739Z,41.30
2019-02-28T18:52:12.421Z,38.80
2019-02-28T18:53:12.293Z,40.40
2019-02-28T18:55:06.310Z,40.90
2019-02-28T18:56:04.847Z,41.70
2019-02-28T18:57:57.521Z,40.20
2019-02-28T18:58:57.414Z,40.20
2019-02-28T19:00:50.102Z,41.40
2019-02-28T19:01:49.979Z,41.40
2019-02-28T19:03:43.650Z,40.00
2019-02-28T19:04:43.537Z,39.40
2019-02-28T19:06:36.234Z,39.90
2019-02-28T19:07:36.110Z,39.70
2019-02-28T19:09:28.790Z,39.50
2019-02-28T19:10:28.685Z,39.50
2019-02-28T19:12:22.449Z,36.70
2019-02-28T19:13:22.323Z,38.10
2019-02-28T19:15:14.979Z,38.70
2019-02-28T19:16:15.425Z,37.60
2019-02-28T19:18:07.551Z,38.70
2019-02-28T19:19:07.424Z,37.30
2019-02-28T19:21:00.091Z,35.40
2019-02-28T19:21:59.987Z,35.20
2019-02-28T19:23:52.676Z,35.20
2019-02-28T19:24:52.555Z,35.00
2019-02-28T19:26:45.261Z,32.70
2019-02-28T19:27:45.165Z,33.10
2019-02-28T19:29:37.826Z,32.00
2019-02-28T19:30:37.703Z,31.60
2019-02-28T19:32:30.380Z,31.60
2019-02-28T19:33:30.266Z,31.00
2019-02-28T19:35:22.953Z,28.60
2019-02-28T19:36:22.833Z,28.70
2019-02-28T19:38:15.566Z,27.50
2019-02-28T19:39:15.400Z,27.80
2019-02-28T19:41:08.185Z,27.60
2019-02-28T19:42:08.059Z,23.30
2019-02-28T19:44:00.752Z,25.20
2019-02-28T19:45:00.670Z,23.80
2019-02-28T19:46:53.465Z,24.90
2019-02-28T19:47:53.333Z,25.10
2019-02-28T19:49:46.572Z,24.50
2019-02-28T19:50:45.823Z,24.60
2019-02-28T19:52:38.461Z,23.90
2019-02-28T19:53:38.366Z,24.20
2019-02-28T19:55:31.040Z,23.70
2019-02-28T19:56:30.909Z,23.10
2019-02-28T19:58:23.622Z,23.60
2019-02-28T19:59:23.505Z,23.50
2019-02-28T20:01:18.946Z,22.40
2019-02-28T20:02:16.074Z,22.10
2019-02-28T20:04:08.747Z,22.70
2019-02-28T20:05:08.629Z,22.60
2019-02-28T20:07:01.428Z,21.90
2019-02-28T20:08:01.227Z,21.60
2019-02-28T20:09:54.426Z,21.80
2019-02-28T20:10:54.410Z,22.80
2019-02-28T20:12:47.048Z,21.50
2019-02-28T20:13:46.892Z,21.70
2019-02-28T20:15:39.597Z,21.40
2019-02-28T20:16:39.467Z,21.60
2019-02-28T20:18:32.171Z,20.60
2019-02-28T20:19:32.045Z,20.30
2019-02-28T20:21:24.743Z,19.70
2019-02-28T20:22:24.636Z,20.40
2019-02-28T20:24:17.320Z,20.30
2019-02-28T20:25:17.207Z,20.10
2019-02-28T20:27:09.863Z,19.00
2019-02-28T20:28:09.762Z,20.00
2019-02-28T20:30:02.444Z,19.50
2019-02-28T20:31:02.325Z,19.30
2019-02-28T20:32:55.010Z,19.30
2019-02-28T20:33:54.897Z,19.60
2019-02-28T20:35:47.618Z,19.40
2019-02-28T20:36:47.467Z,18.70
2019-02-28T20:38:40.177Z,19.20
2019-02-28T20:39:40.064Z,20.10
2019-02-28T20:41:32.717Z,19.00
2019-02-28T20:42:32.625Z,18.60
2019-02-28T20:44:25.454Z,17.80
2019-02-28T20:45:25.210Z,18.90
2019-02-28T20:47:17.884Z,18.80
2019-02-28T20:48:17.775Z,18.80
2019-02-28T20:50:10.501Z,18.60
2019-02-28T20:51:10.378Z,18.20
2019-02-28T20:53:03.074Z,18.00
2019-02-28T20:54:02.972Z,17.50
2019-02-28T20:55:55.670Z,17.50
2019-02-28T20:56:55.573Z,17.90
2019-02-28T20:58:48.239Z,16.80
2019-02-28T20:59:48.108Z,16.80
2019-02-28T21:01:40.789Z,16.70
2019-02-28T21:02:40.686Z,16.00
2019-02-28T21:04:33.866Z,16.70
2019-02-28T21:05:33.740Z,16.70
2019-02-28T21:07:26.402Z,15.00
2019-02-28T21:08:26.292Z,14.40
2019-02-28T21:10:18.978Z,12.80
2019-02-28T21:11:18.850Z,13.30
2019-02-28T21:13:11.779Z,12.30
2019-02-28T21:14:11.406Z,12.80
2019-02-28T21:16:04.157Z,11.50
2019-02-28T21:17:03.962Z,11.20
2019-02-28T21:18:58.223Z,11.60
2019-02-28T21:19:56.527Z,11.20
2019-02-28T21:21:49.214Z,10.10
2019-02-28T21:22:49.094Z,10.50
2019-02-28T21:24:41.755Z,9.80
2019-02-28T21:25:41.643Z,10.30
2019-02-28T21:27:34.358Z,10.00
2019-02-28T21:28:34.214Z,9.90
2019-02-28T21:30:27.730Z,10.00
2019-02-28T21:31:27.625Z,9.80
2019-02-28T21:33:20.359Z,9.40
2019-02-28T21:34:20.267Z,9.30
2019-02-28T21:36:12.908Z,9.30
2019-02-28T21:37:12.792Z,9.00
2019-02-28T21:39:05.532Z,9.20
2019-02-28T21:40:05.346Z,8.30
2019-02-28T21:41:58.034Z,8.90
2019-02-28T21:42:57.907Z,8.50
2019-02-28T21:44:50.599Z,8.60
2019-02-28T21:45:50.458Z,9.00
2019-02-28T21:47:43.163Z,8.90
2019-02-28T21:48:43.027Z,7.80
2019-02-28T21:50:35.737Z,8.80
2019-02-28T21:51:35.605Z,8.80
2019-02-28T21:53:28.264Z,8.70
2019-02-28T21:54:28.162Z,8.50
2019-02-28T21:56:20.844Z,8.10
2019-02-28T21:57:20.724Z,8.50
2019-02-28T21:59:13.393Z,8.60
2019-02-28T22:00:13.274Z,9.10
2019-02-28T22:02:05.971Z,8.80
2019-02-28T22:03:05.842Z,9.30
2019-02-28T22:04:58.528Z,8.50
2019-02-28T22:05:58.410Z,8.50
2019-02-28T22:07:51.090Z,9.40
2019-02-28T22:08:50.967Z,9.00
2019-02-28T22:10:43.630Z,8.80
2019-02-28T22:11:43.524Z,8.40
2019-02-28T22:13:36.221Z,9.10
2019-02-28T22:14:36.090Z,8.90
2019-02-28T22:16:28.775Z,8.30
2019-02-28T22:17:28.647Z,9.10
2019-02-28T22:19:21.334Z,8.90
2019-02-28T22:20:21.222Z,8.70
2019-02-28T22:22:13.892Z,9.90
2019-02-28T22:23:13.776Z,9.00
2019-02-28T22:25:06.472Z,10.10
2019-02-28T22:26:06.335Z,10.00
2019-02-28T22:27:58.997Z,9.90
2019-02-28T22:28:58.896Z,9.80
2019-02-28T22:30:51.577Z,9.90
2019-02-28T22:31:51.448Z,9.80
2019-02-28T22:33:44.114Z,11.10
2019-02-28T22:34:44.008Z,11.00
2019-02-28T22:36:36.704Z,10.60
2019-02-28T22:37:36.567Z,10.30
2019-02-28T22:39:29.237Z,11.60
2019-02-28T22:40:29.132Z,10.80
2019-02-28T22:42:22.579Z,11.70
2019-02-28T22:43:21.689Z,11.90
2019-02-28T22:45:14.379Z,11.70
2019-02-28T22:46:14.257Z,12.40
2019-02-28T22:48:06.954Z,11.50
2019-02-28T22:49:06.823Z,11.80
2019-02-28T22:50:59.489Z,12.30
2019-02-28T22:51:59.381Z,12.20
2019-02-28T22:53:52.581Z,12.30
2019-02-28T22:54:52.443Z,12.80
2019-02-28T22:56:45.121Z,12.70
2019-02-28T22:57:45.013Z,12.70
2019-02-28T22:59:37.693Z,12.50
